Time;durP1;ratioP1;P1;durP2;ratioP2;P2;SDS_P1;SDS_P2;PMS_P1;PMS_P2;Temp;Humidity;BMP_temperature;BMP_pressure;BME280_temperature;BME280_humidity;BME280_pressure;Samples;Min_cycle;Max_cycle;Signal;HPM_P1;HPM_P2
2022/05/28 00:01:10;;;;;;;21.73;2.95;;;;;;;6.80;100.00;154240.78;5027538;28;20040;-79
2022/05/28 00:03:37;;;;;;;14.75;2.97;;;;;;;6.66;100.00;154203.66;5034639;28;20033;-79
2022/05/28 00:06:08;;;;;;;17.40;2.53;;;;;;;6.83;100.00;154247.16;5008181;28;20041;-77
2022/05/28 00:08:34;;;;;;;21.27;3.30;;;;;;;6.85;100.00;154251.00;5019605;28;20478;-77
2022/05/28 00:10:59;;;;;;;17.02;2.70;;;;;;;6.85;100.00;154251.00;5023116;28;20037;-77
2022/05/28 00:13:25;;;;;;;15.50;2.53;;;;;;;6.97;100.00;154281.75;4995158;28;20032;-77
2022/05/28 00:15:51;;;;;;;16.45;2.70;;;;;;;6.92;100.00;154268.94;5023992;28;20043;-77
2022/05/28 00:18:17;;;;;;;21.05;2.88;;;;;;;7.08;100.00;154308.59;5020061;28;20033;-77
2022/05/28 00:20:42;;;;;;;17.63;2.88;;;;;;;7.13;100.00;154321.41;5022714;28;20180;-77
2022/05/28 00:23:08;;;;;;;28.23;3.30;;;;;;;7.18;100.00;154334.22;5021774;28;20041;-76
2022/05/28 00:25:34;;;;;;;22.38;3.13;;;;;;;7.24;100.00;154348.28;5026168;28;20045;-77
2022/05/28 00:28:00;;;;;;;22.45;3.28;;;;;;;7.33;100.00;154372.59;5011932;28;20098;-79
2022/05/28 00:30:25;;;;;;;25.52;3.35;;;;;;;7.44;100.00;154399.50;4998529;28;20581;-78
2022/05/28 00:32:51;;;;;;;25.42;3.50;;;;;;;7.51;100.00;154416.13;5022116;28;20088;-76
2022/05/28 00:35:19;;;;;;;18.30;3.00;;;;;;;7.60;100.00;154439.19;5004917;28;20491;-78
2022/05/28 00:37:46;;;;;;;20.70;3.28;;;;;;;7.60;100.00;154439.19;5014682;28;20033;-77
2022/05/28 00:40:16;;;;;;;18.45;2.60;;;;;;;7.46;100.00;154404.63;5035072;28;20030;-77
2022/05/28 00:42:42;;;;;;;15.85;2.47;;;;;;;7.27;100.00;154355.94;5034916;28;20111;-76
2022/05/28 00:45:08;;;;;;;9.38;1.67;;;;;;;7.05;100.00;154302.19;4996947;28;20292;-77
2022/05/28 00:47:35;;;;;;;9.43;1.67;;;;;;;7.10;100.00;154313.69;5007179;28;20095;-77
2022/05/28 00:50:05;;;;;;;8.13;1.63;;;;;;;6.99;100.00;154288.13;5037931;28;21003;-79
2022/05/28 00:52:33;;;;;;;9.65;1.65;;;;;;;6.99;100.00;154286.84;5008415;28;20037;-79
2022/05/28 00:54:59;;;;;;;11.50;2.13;;;;;;;6.92;100.00;154270.19;5023765;28;20065;-78
2022/05/28 00:57:25;;;;;;;9.85;1.83;;;;;;;6.85;100.00;154252.28;5039375;28;20060;-78
2022/05/28 00:59:50;;;;;;;9.77;1.70;;;;;;;6.85;100.00;154252.28;5036254;28;20079;-78
2022/05/28 01:02:42;;;;;;;10.00;1.95;;;;;;;6.77;100.00;154233.06;5041226;28;20064;-77
2022/05/28 01:05:31;;;;;;;19.17;2.70;;;;;;;6.83;100.00;154248.41;5035081;28;20068;-78
2022/05/28 01:08:15;;;;;;;14.07;2.78;;;;;;;6.96;100.00;154280.44;5036718;28;20051;-77
2022/05/28 01:10:52;;;;;;;15.80;3.10;;;;;;;7.10;100.00;154313.69;5038793;28;20025;-79
2022/05/28 01:13:25;;;;;;;9.63;1.85;;;;;;;7.12;100.00;154320.13;5043478;28;20041;-77
2022/05/28 01:16:14;;;;;;;9.45;1.80;;;;;;;6.89;100.00;154262.50;5029192;28;20515;-78
2022/05/28 01:18:51;;;;;;;7.90;1.33;;;;;;;6.82;100.00;154244.63;5049307;28;20033;-76
2022/05/28 01:21:42;;;;;;;16.83;2.13;;;;;;;6.76;100.00;154229.22;5024498;28;20033;-79
2022/05/28 01:24:23;;;;;;;9.52;2.10;;;;;;;6.70;100.00;154215.16;5028200;28;20344;-77
2022/05/28 01:26:57;;;;;;;13.18;2.30;;;;;;;6.75;100.00;154226.69;5013639;28;20351;-77
2022/05/28 01:29:27;;;;;;;15.63;2.35;;;;;;;6.76;100.00;154229.22;5031361;28;20083;-77
2022/05/28 01:31:54;;;;;;;10.38;1.80;;;;;;;6.85;100.00;154252.28;5027431;28;20038;-77
2022/05/28 01:34:21;;;;;;;9.43;1.85;;;;;;;6.89;100.00;154262.50;5037445;28;20108;-77
2022/05/28 01:36:48;;;;;;;10.73;1.80;;;;;;;6.82;100.00;154245.88;5033993;28;20033;-78
2022/05/28 01:39:16;;;;;;;6.70;1.60;;;;;;;6.87;100.00;154256.13;5030186;28;20025;-78
2022/05/28 01:41:43;;;;;;;5.05;1.30;;;;;;;6.93;100.00;154272.78;5029820;28;20115;-80
2022/05/28 01:44:11;;;;;;;5.90;1.70;;;;;;;6.80;100.00;154240.78;5022231;28;20061;-80
2022/05/28 01:46:39;;;;;;;8.30;1.80;;;;;;;6.85;100.00;154251.00;5008871;28;20052;-79
2022/05/28 01:49:09;;;;;;;13.65;3.28;;;;;;;6.81;100.00;154243.31;5022332;28;20051;-77
2022/05/28 01:51:39;;;;;;;12.82;2.20;;;;;;;6.75;100.00;154226.69;5022000;28;20033;-76
2022/05/28 01:54:08;;;;;;;7.68;2.38;;;;;;;6.66;100.00;154203.66;5013852;28;20045;-75
2022/05/28 01:56:42;;;;;;;13.15;1.92;;;;;;;6.69;100.00;154211.34;5022990;28;20119;-77
2022/05/28 01:59:08;;;;;;;12.23;2.25;;;;;;;6.65;100.00;154201.06;5023698;28;20522;-76
2022/05/28 02:01:33;;;;;;;6.10;1.50;;;;;;;6.62;100.00;154195.97;5003667;28;20029;-77
2022/05/28 02:04:04;;;;;;;9.27;1.75;;;;;;;6.58;100.00;154185.72;5018597;28;20040;-77
2022/05/28 02:06:31;;;;;;;6.45;2.05;;;;;;;6.66;100.00;154203.66;5010321;28;20041;-78
2022/05/28 02:08:58;;;;;;;11.02;1.80;;;;;;;6.55;100.00;154178.03;4993515;28;20091;-78
2022/05/28 02:11:27;;;;;;;7.20;1.70;;;;;;;6.70;100.00;154215.16;5012564;28;20553;-79
2022/05/28 02:14:19;;;;;;;6.82;2.00;;;;;;;6.71;100.00;154217.72;5024699;28;20886;-76
2022/05/28 02:16:51;;;;;;;5.53;1.60;;;;;;;6.79;100.00;154238.19;5021779;28;20037;-78
2022/05/28 02:19:26;;;;;;;7.38;1.63;;;;;;;6.85;100.00;154251.00;5042391;28;20560;-77
2022/05/28 02:22:07;;;;;;;10.15;1.63;;;;;;;6.86;100.00;154253.59;5038176;28;20530;-76
2022/05/28 02:24:41;;;;;;;5.47;1.60;;;;;;;6.85;100.00;154251.00;5008653;28;20049;-76
2022/05/28 02:27:18;;;;;;;6.90;1.50;;;;;;;6.89;100.00;154262.50;5027813;28;20297;-78
2022/05/28 02:29:44;;;;;;;5.28;1.52;;;;;;;6.83;100.00;154247.16;5041980;28;20048;-78
2022/05/28 02:32:19;;;;;;;9.85;1.60;;;;;;;6.71;100.00;154217.72;5007084;28;20048;-77
2022/05/28 02:34:45;;;;;;;10.65;2.30;;;;;;;6.86;100.00;154254.84;5016993;28;20487;-76
2022/05/28 02:37:14;;;;;;;8.38;2.20;;;;;;;6.90;100.00;154263.81;5041335;28;20040;-76
2022/05/28 02:39:39;;;;;;;9.88;2.00;;;;;;;6.86;100.00;154253.59;5035511;28;20029;-78
2022/05/28 02:42:05;;;;;;;8.05;1.90;;;;;;;6.88;100.00;154258.69;5024063;28;20082;-77
2022/05/28 02:44:31;;;;;;;17.05;2.42;;;;;;;6.78;100.00;154235.66;5037145;28;20029;-77
2022/05/28 02:46:56;;;;;;;10.88;1.88;;;;;;;6.96;100.00;154280.44;5018896;28;20120;-77
2022/05/28 02:49:23;;;;;;;11.82;1.90;;;;;;;6.90;100.00;154263.81;5015514;28;20107;-77
2022/05/28 02:51:49;;;;;;;9.27;1.83;;;;;;;6.90;100.00;154263.81;5022424;28;20037;-76
2022/05/28 02:54:15;;;;;;;16.02;2.40;;;;;;;6.94;100.00;154275.31;4998799;28;20036;-78
2022/05/28 02:56:42;;;;;;;11.25;2.03;;;;;;;6.91;100.00;154266.34;5024698;28;20078;-77
2022/05/28 02:59:07;;;;;;;9.43;2.17;;;;;;;6.98;100.00;154284.28;5014210;28;20037;-77
2022/05/28 03:01:33;;;;;;;10.38;2.17;;;;;;;6.96;100.00;154279.16;5019380;28;20033;-76
2022/05/28 03:04:00;;;;;;;13.95;2.22;;;;;;;6.94;100.00;154274.03;5024692;28;20032;-76
2022/05/28 03:06:26;;;;;;;12.13;2.22;;;;;;;6.89;100.00;154261.22;5009193;28;20098;-77
2022/05/28 03:08:52;;;;;;;12.95;2.05;;;;;;;6.79;100.00;154238.19;5012030;28;20064;-77
2022/05/28 03:11:18;;;;;;;6.85;1.90;;;;;;;6.69;100.00;154212.63;4992674;28;20057;-76
2022/05/28 03:13:44;;;;;;;14.13;1.80;;;;;;;6.67;100.00;154206.19;5025058;28;20091;-77
2022/05/28 03:16:10;;;;;;;9.63;2.00;;;;;;;6.62;100.00;154195.97;4989325;28;20091;-75
2022/05/28 03:18:36;;;;;;;14.20;2.15;;;;;;;6.53;100.00;154172.94;5007263;28;20037;-75
2022/05/28 03:21:03;;;;;;;8.50;2.10;;;;;;;6.55;100.00;154178.03;5001073;28;20091;-74
2022/05/28 03:23:29;;;;;;;8.52;2.40;;;;;;;6.59;100.00;154187.00;5020419;28;20040;-75
2022/05/28 03:25:54;;;;;;;7.70;1.77;;;;;;;6.60;100.00;154189.59;5021374;28;20036;-76
2022/05/28 03:28:20;;;;;;;19.58;2.55;;;;;;;6.72;100.00;154220.28;5008418;28;20036;-76
2022/05/28 03:30:46;;;;;;;16.63;3.00;;;;;;;6.86;100.00;154253.59;5024550;28;20052;-77
2022/05/28 03:33:12;;;;;;;24.23;3.88;;;;;;;6.83;100.00;154247.16;5000737;28;20037;-76
2022/05/28 03:35:39;;;;;;;20.67;2.80;;;;;;;6.97;100.00;154281.75;5013749;28;20037;-75
2022/05/28 03:38:05;;;;;;;11.57;2.60;;;;;;;6.99;100.00;154286.84;5020386;28;20122;-76
2022/05/28 03:40:30;;;;;;;14.32;3.05;;;;;;;7.05;100.00;154300.94;5020519;28;20075;-76
2022/05/28 03:42:56;;;;;;;17.63;2.80;;;;;;;7.05;100.00;154302.19;5026248;28;20532;-76
2022/05/28 03:45:25;;;;;;;17.13;2.90;;;;;;;7.11;100.00;154316.28;5022882;28;20036;-78
2022/05/28 03:47:50;;;;;;;10.00;2.40;;;;;;;7.07;100.00;154307.31;5018099;28;20048;-80
2022/05/28 03:50:16;;;;;;;18.63;3.10;;;;;;;7.08;100.00;154308.59;5031941;28;20064;-78
2022/05/28 03:52:41;;;;;;;17.13;2.55;;;;;;;7.13;100.00;154321.41;5034390;28;20159;-77
2022/05/28 03:55:08;;;;;;;14.48;2.40;;;;;;;7.04;100.00;154299.63;5009553;28;20043;-77
2022/05/28 03:57:34;;;;;;;13.43;2.83;;;;;;;7.07;100.00;154307.31;5009802;28;20034;-75
2022/05/28 04:00:01;;;;;;;21.92;3.10;;;;;;;7.09;100.00;154312.44;5020116;28;20408;-75
2022/05/28 04:02:26;;;;;;;21.52;3.33;;;;;;;7.12;100.00;154318.81;5022195;28;20041;-76
2022/05/28 04:04:52;;;;;;;14.93;2.72;;;;;;;7.13;100.00;154322.66;5022265;28;20517;-76
2022/05/28 04:07:18;;;;;;;16.02;2.88;;;;;;;7.28;100.00;154358.53;5017463;28;20037;-76
2022/05/28 04:09:44;;;;;;;17.17;3.67;;;;;;;7.46;100.00;154404.63;5027259;28;20033;-78
2022/05/28 04:12:10;;;;;;;14.82;2.75;;;;;;;7.67;100.00;154455.84;5031412;28;20576;-77
2022/05/28 04:14:39;;;;;;;16.98;2.80;;;;;;;7.69;100.00;154462.22;5005374;28;20144;-77
2022/05/28 04:17:05;;;;;;;21.65;2.85;;;;;;;7.60;100.00;154440.44;5016227;28;20116;-79
2022/05/28 04:19:31;;;;;;;12.63;2.70;;;;;;;7.59;100.00;154437.91;5022701;28;20841;-77
2022/05/28 04:21:57;;;;;;;20.65;2.70;;;;;;;7.63;100.00;154445.56;5040427;28;20063;-77
2022/05/28 04:24:23;;;;;;;15.63;2.80;;;;;;;7.71;100.00;154467.34;5012075;28;20509;-76
2022/05/28 04:26:49;;;;;;;14.80;2.63;;;;;;;7.76;100.00;154480.16;5023272;28;20040;-77
2022/05/28 04:29:15;;;;;;;14.75;2.63;;;;;;;7.84;100.00;154498.09;5038475;28;20037;-77
2022/05/28 04:31:40;;;;;;;18.52;3.45;;;;;;;7.78;100.00;154485.28;5015153;28;20060;-77
2022/05/28 04:34:06;;;;;;;13.05;2.65;;;;;;;7.75;100.00;154477.59;5024888;28;20044;-77
2022/05/28 04:36:31;;;;;;;19.10;2.63;;;;;;;7.72;100.00;154468.63;5042073;28;20403;-76
2022/05/28 04:38:57;;;;;;;19.23;2.97;;;;;;;7.71;100.00;154467.34;5026059;28;20037;-76
2022/05/28 04:41:22;;;;;;;19.30;3.40;;;;;;;7.79;100.00;154487.81;5035294;28;20033;-75
2022/05/28 04:43:48;;;;;;;18.08;3.00;;;;;;;7.90;100.00;154513.47;5021087;28;20051;-77
2022/05/28 04:46:14;;;;;;;12.27;3.13;;;;;;;7.99;100.00;154537.78;4993002;28;20039;-78
2022/05/28 04:48:40;;;;;;;17.10;3.03;;;;;;;7.97;100.00;154531.41;5022516;28;20095;-77
2022/05/28 04:51:05;;;;;;;16.05;3.05;;;;;;;7.99;100.00;154536.53;5015114;28;20108;-77
2022/05/28 04:53:31;;;;;;;11.13;2.90;;;;;;;8.03;100.00;154546.75;5037350;28;20163;-76
2022/05/28 04:55:57;;;;;;;14.13;3.08;;;;;;;8.17;100.00;154581.31;5024235;28;20115;-77
2022/05/28 04:58:23;;;;;;;11.85;2.67;;;;;;;8.02;100.00;154544.16;5024428;28;20047;-77
2022/05/28 05:00:48;;;;;;;15.77;2.97;;;;;;;8.01;100.00;154540.38;5034590;28;20045;-76
2022/05/28 05:03:14;;;;;;;14.27;2.90;;;;;;;8.11;100.00;154567.22;5027008;28;20091;-76
2022/05/28 05:05:40;;;;;;;19.83;3.38;;;;;;;8.26;100.00;154603.13;5021567;28;20466;-76
2022/05/28 05:08:06;;;;;;;15.18;3.17;;;;;;;8.35;100.00;154626.19;5043989;28;20033;-76
2022/05/28 05:10:31;;;;;;;20.35;3.35;;;;;;;8.37;100.00;154632.56;5007403;28;20043;-76
2022/05/28 05:12:59;;;;;;;15.75;2.78;;;;;;;8.45;100.00;154650.56;5014164;28;20037;-77
2022/05/28 05:15:24;;;;;;;17.98;3.28;;;;;;;8.54;100.00;154673.63;5038371;28;20034;-80
2022/05/28 05:17:50;;;;;;;10.88;3.00;;;;;;;8.43;100.00;154646.72;5013673;28;20037;-78
2022/05/28 05:20:16;;;;;;;18.27;2.83;;;;;;;8.62;100.00;154694.09;5002369;28;20040;-76
2022/05/28 05:22:42;;;;;;;18.08;3.20;;;;;;;8.74;100.00;154723.63;5022118;28;20025;-76
2022/05/28 05:25:10;;;;;;;13.70;2.90;;;;;;;8.81;100.00;154740.25;5021569;28;20041;-75
2022/05/28 05:27:36;;;;;;;21.08;3.20;;;;;;;8.89;100.00;154762.06;5030709;28;20037;-77
2022/05/28 05:30:03;;;;;;;15.07;2.80;;;;;;;9.03;100.00;154796.63;5010566;28;20055;-75
2022/05/28 05:32:29;;;;;;;18.45;3.20;;;;;;;9.23;100.00;154846.66;5033897;28;20037;-77
2022/05/28 05:34:54;;;;;;;22.58;3.38;;;;;;;9.39;100.00;154886.38;5022583;28;20044;-79
2022/05/28 05:37:20;;;;;;;19.52;3.17;;;;;;;9.42;100.00;154894.06;5045597;28;20043;-78
2022/05/28 05:39:46;;;;;;;24.38;3.22;;;;;;;9.47;100.00;154905.59;5012611;28;20831;-78
2022/05/28 05:42:11;;;;;;;20.67;3.20;;;;;;;9.60;100.00;154937.66;4992402;28;20074;-77
2022/05/28 05:44:38;;;;;;;14.77;2.88;;;;;;;9.72;100.00;154968.44;5000940;28;20510;-77
2022/05/28 05:47:05;;;;;;;27.05;4.43;;;;;;;9.97;100.00;155030.00;5024248;28;20478;-77
2022/05/28 05:49:31;;;;;;;18.42;4.05;;;;;;;10.12;100.00;155069.72;5010644;28;20056;-76
2022/05/28 05:51:57;;;;;;;21.02;3.42;;;;;;;10.06;100.00;155053.09;5025074;28;20074;-76
2022/05/28 05:54:26;;;;;;;25.55;4.00;;;;;;;10.22;100.00;155092.81;5009631;28;20127;-77
2022/05/28 05:56:53;;;;;;;24.10;3.92;;;;;;;10.45;100.00;155150.59;5023256;28;20064;-76
2022/05/28 05:59:19;;;;;;;18.27;3.72;;;;;;;10.40;100.00;155139.06;5047695;28;20037;-78
2022/05/28 06:01:46;;;;;;;14.63;3.15;;;;;;;10.30;100.00;155114.69;5020508;28;20033;-78
2022/05/28 06:04:12;;;;;;;20.80;3.78;;;;;;;10.01;100.00;155041.50;5012199;28;20079;-78
2022/05/28 06:06:37;;;;;;;14.82;2.55;;;;;;;9.67;100.00;154956.88;5040388;28;20491;-79
2022/05/28 06:09:03;;;;;;;20.90;2.95;;;;;;;9.54;100.00;154924.81;5040463;28;20460;-77
2022/05/28 06:11:28;;;;;;;17.70;2.63;;;;;;;9.67;100.00;154955.59;5019616;28;20033;-78
2022/05/28 06:13:54;;;;;;;11.60;2.70;;;;;;;9.90;100.00;155013.31;5028366;28;20041;-78
2022/05/28 06:16:20;;;;;;;16.98;2.30;;;;;;;10.14;100.00;155074.84;5022084;28;20040;-76
2022/05/28 06:18:46;;;;;;;15.70;2.55;;;;;;;10.11;100.00;155067.19;5010821;28;20674;-76
2022/05/28 06:21:11;;;;;;;17.52;2.60;;;;;;;10.05;100.00;155051.75;5042918;28;20033;-75
2022/05/28 06:23:38;;;;;;;12.57;2.22;;;;;;;10.16;100.00;155077.44;5037860;28;20118;-76
2022/05/28 06:26:05;;;;;;;12.48;2.55;;;;;;;10.30;100.00;155114.69;5023336;28;20104;-77
2022/05/28 06:28:31;;;;;;;20.58;2.55;;;;;;;10.23;100.00;155096.69;5011945;28;20060;-75
2022/05/28 06:31:01;;;;;;;16.63;2.47;;;;;;;10.07;100.00;155056.91;5009039;28;20033;-77
2022/05/28 06:33:26;;;;;;;15.90;2.85;;;;;;;10.18;100.00;155082.56;4999333;28;20118;-76
2022/05/28 06:35:57;;;;;;;10.70;2.67;;;;;;;10.38;100.00;155133.94;5018830;28;20048;-77
2022/05/28 06:38:23;;;;;;;11.98;2.53;;;;;;;10.52;100.00;155168.56;5009464;28;20036;-75
2022/05/28 06:40:48;;;;;;;20.73;2.50;;;;;;;10.89;100.00;155260.94;5017623;28;20049;-76
2022/05/28 06:43:14;;;;;;;15.65;2.47;;;;;;;11.15;100.00;155326.41;5009921;28;20028;-75
2022/05/28 06:45:39;;;;;;;12.85;2.40;;;;;;;11.23;100.00;155345.66;5015036;28;20635;-77
2022/05/28 06:48:05;;;;;;;14.15;2.72;;;;;;;11.66;100.00;155453.47;5040451;28;20060;-78
2022/05/28 06:53:15;;;;;;;13.27;2.55;;;;;;;11.63;100.00;155445.75;5015774;28;20033;-78
2022/05/28 06:55:41;;;;;;;16.88;2.88;;;;;;;11.73;100.00;155470.16;5040259;28;20029;-76
2022/05/28 06:58:07;;;;;;;17.73;2.90;;;;;;;11.78;100.00;155484.28;5015990;28;20047;-76
2022/05/28 07:00:34;;;;;;;25.70;2.63;;;;;;;11.66;100.00;155453.47;5027064;28;20040;-76
2022/05/28 07:02:59;;;;;;;17.45;3.10;;;;;;;11.76;100.00;155477.88;5027623;28;20021;-77
2022/05/28 07:05:25;;;;;;;13.32;2.42;;;;;;;11.97;100.00;155530.56;5024253;28;20045;-77
2022/05/28 07:07:51;;;;;;;19.33;2.65;;;;;;;12.18;100.00;155583.19;5036779;28;20033;-77
2022/05/28 07:10:16;;;;;;;14.02;2.63;;;;;;;11.99;100.00;155536.94;5016009;28;20044;-75
2022/05/28 07:12:42;;;;;;;16.70;2.58;;;;;;;12.21;100.00;155590.91;5022632;28;20029;-77
2022/05/28 07:15:08;;;;;;;21.10;3.65;;;;;;;12.12;99.83;155569.06;5024715;28;21311;-77
2022/05/28 07:17:34;;;;;;;15.95;2.70;;;;;;;12.00;100.00;155538.28;5019918;28;20122;-75
2022/05/28 07:19:59;;;;;;;19.13;2.85;;;;;;;12.11;100.00;155566.53;5035079;28;20447;-76
2022/05/28 07:22:25;;;;;;;14.30;2.58;;;;;;;12.10;100.00;155563.94;5026310;28;20083;-76
2022/05/28 07:24:50;;;;;;;19.52;2.95;;;;;;;12.28;97.29;155608.84;5008148;28;20044;-76
2022/05/28 07:27:18;;;;;;;18.45;3.00;;;;;;;12.66;100.00;155703.94;5036597;28;20033;-75
2022/05/28 07:29:44;;;;;;;20.95;3.55;;;;;;;12.96;93.66;155779.75;5037925;28;20037;-75
2022/05/28 07:32:10;;;;;;;17.90;2.88;;;;;;;13.00;96.39;155788.75;5025456;28;20040;-76
2022/05/28 07:34:35;;;;;;;17.73;2.40;;;;;;;12.79;100.00;155737.34;5040760;28;20045;-77
2022/05/28 07:37:01;;;;;;;15.65;3.05;;;;;;;12.87;92.46;155755.34;5009659;28;20037;-76
2022/05/28 07:39:27;;;;;;;12.13;2.30;;;;;;;12.46;92.94;155655.09;5021288;28;20033;-75
2022/05/28 07:41:52;;;;;;;14.18;2.90;;;;;;;12.03;100.00;155545.94;5017949;28;20534;-76
2022/05/28 07:44:19;;;;;;;18.73;2.40;;;;;;;11.48;100.00;155409.81;5011954;28;20086;-78
2022/05/28 07:46:45;;;;;;;17.75;2.22;;;;;;;11.08;100.00;155309.69;5029200;28;20043;-78
2022/05/28 07:49:10;;;;;;;16.10;2.67;;;;;;;10.81;100.00;155241.69;5024048;28;21041;-76
2022/05/28 07:51:36;;;;;;;11.13;1.80;;;;;;;10.63;100.00;155195.50;5037341;28;20140;-75
2022/05/28 07:54:04;;;;;;;12.80;2.60;;;;;;;10.77;100.00;155230.13;5027500;28;20030;-77
2022/05/28 07:56:30;;;;;;;9.90;2.00;;;;;;;11.18;100.00;155332.81;5029447;28;20033;-78
2022/05/28 07:58:57;;;;;;;13.77;2.33;;;;;;;11.46;100.00;155403.41;5000129;28;20040;-76
2022/05/28 08:01:29;;;;;;;11.70;2.65;;;;;;;11.93;100.00;155520.28;5030485;28;20029;-76
2022/05/28 08:03:56;;;;;;;11.52;2.05;;;;;;;12.30;100.00;155614.03;5030550;28;20037;-76
2022/05/28 08:06:22;;;;;;;11.88;2.40;;;;;;;12.40;100.00;155638.44;5045666;28;20316;-76
2022/05/28 08:08:48;;;;;;;14.38;2.30;;;;;;;12.08;100.00;155560.06;5045283;28;20756;-76
2022/05/28 08:11:14;;;;;;;14.95;2.58;;;;;;;11.92;100.00;155517.69;5030121;28;20033;-76
2022/05/28 08:13:40;;;;;;;14.85;2.90;;;;;;;12.16;100.00;155578.06;5021155;28;20087;-75
2022/05/28 08:16:05;;;;;;;15.23;2.58;;;;;;;12.80;100.00;155739.88;5042393;28;20108;-75
2022/05/28 08:18:31;;;;;;;15.23;2.72;;;;;;;12.59;99.41;155687.22;5013820;28;20025;-76
2022/05/28 08:23:43;;;;;;;15.15;2.50;;;;;;;13.25;100.00;155851.69;5043024;28;20037;-76
2022/05/28 08:26:11;;;;;;;14.88;2.50;;;;;;;13.39;100.00;155886.41;5011234;28;20040;-76
2022/05/28 08:28:38;;;;;;;17.08;2.90;;;;;;;13.58;93.19;155933.97;5042625;28;20037;-76
2022/05/28 08:31:05;;;;;;;12.27;2.50;;;;;;;13.49;91.20;155912.16;5038124;28;20037;-77
2022/05/28 08:33:32;;;;;;;16.35;2.70;;;;;;;13.54;92.72;155923.69;5012748;28;20040;-76
2022/05/28 08:35:58;;;;;;;15.43;2.75;;;;;;;13.64;98.90;155949.44;5026513;28;20084;-76
2022/05/28 08:38:25;;;;;;;23.63;2.97;;;;;;;13.87;91.91;156007.25;5039824;28;20123;-76
2022/05/28 08:41:06;;;;;;;20.88;2.63;;;;;;;14.28;90.41;156110.13;5034192;28;20037;-76
2022/05/28 08:43:38;;;;;;;17.50;2.80;;;;;;;13.91;88.99;156016.25;5000559;28;20163;-75
2022/05/28 08:46:08;;;;;;;17.00;2.40;;;;;;;13.24;95.19;155850.41;5026787;28;20037;-76
2022/05/28 08:48:43;;;;;;;15.52;2.47;;;;;;;12.68;96.11;155709.09;5010365;28;20547;-76
2022/05/28 08:51:13;;;;;;;18.02;2.97;;;;;;;12.51;98.06;155665.38;5029865;28;20062;-78
2022/05/28 08:53:46;;;;;;;17.70;2.53;;;;;;;12.37;95.22;155630.72;5012039;28;20060;-76
2022/05/28 08:56:17;;;;;;;14.88;2.60;;;;;;;12.48;96.77;155658.97;5026806;28;20025;-77
2022/05/28 08:58:45;;;;;;;21.52;3.65;;;;;;;13.25;94.99;155851.69;5015431;28;20518;-75
2022/05/28 09:01:20;;;;;;;14.07;2.45;;;;;;;13.73;92.03;155972.56;5014220;28;20071;-76
2022/05/28 09:03:54;;;;;;;18.63;2.60;;;;;;;13.58;91.33;155933.97;5011772;28;20088;-75
2022/05/28 09:06:27;;;;;;;17.05;2.72;;;;;;;13.46;85.94;155904.44;5034022;28;20041;-76
2022/05/28 09:08:55;;;;;;;14.73;2.58;;;;;;;13.10;94.74;155814.41;5025938;28;20507;-75
2022/05/28 09:11:40;;;;;;;24.70;3.85;;;;;;;12.33;100.00;155620.44;5013151;28;20061;-78
2022/05/28 09:14:20;;;;;;;15.65;2.70;;;;;;;11.88;100.00;155508.66;5035130;28;20620;-77
2022/05/28 09:16:49;;;;;;;13.93;2.47;;;;;;;11.63;100.00;155445.75;5034159;28;20083;-78
2022/05/28 09:19:20;;;;;;;20.23;2.65;;;;;;;11.60;100.00;155439.34;5043647;28;20569;-78
2022/05/28 09:21:47;;;;;;;15.95;2.53;;;;;;;11.54;100.00;155423.91;5028119;28;20495;-79
2022/05/28 09:24:19;;;;;;;15.75;2.60;;;;;;;11.64;100.00;155449.63;5005554;28;20439;-77
2022/05/28 09:27:03;;;;;;;17.35;2.80;;;;;;;12.54;100.00;155673.09;5009548;28;20036;-77
2022/05/28 09:29:37;;;;;;;13.93;2.30;;;;;;;12.96;94.62;155778.44;5041171;28;20079;-78
2022/05/28 09:32:32;;;;;;;13.63;2.60;;;;;;;12.94;90.19;155773.28;5026607;28;20537;-78
2022/05/28 09:35:15;;;;;;;14.90;2.38;;;;;;;13.28;89.14;155858.09;5003160;28;20561;-78
2022/05/28 09:37:56;;;;;;;16.88;2.72;;;;;;;13.27;89.72;155856.81;5007838;28;20055;-78
2022/05/28 09:40:42;;;;;;;11.90;2.38;;;;;;;13.74;100.00;155973.84;5024541;28;20148;-78
2022/05/28 09:43:26;;;;;;;17.05;2.75;;;;;;;14.28;89.71;156110.13;5021973;28;20362;-77
2022/05/28 09:46:17;;;;;;;14.38;2.42;;;;;;;14.08;84.74;156058.69;4994179;28;20156;-77
2022/05/28 09:48:43;;;;;;;15.55;2.60;;;;;;;13.58;92.12;155935.28;5008725;28;20033;-78
2022/05/28 09:51:23;;;;;;;17.10;2.45;;;;;;;12.99;90.72;155787.41;4994066;28;20717;-76
2022/05/28 09:57:10;;;;;;;20.77;2.85;;;;;;;11.86;98.41;155504.78;5021564;28;20108;-77
2022/05/28 09:59:46;;;;;;;29.08;2.60;;;;;;;12.00;100.00;155539.53;5017094;28;20049;-77
2022/05/28 10:02:18;;;;;;;20.35;3.03;;;;;;;12.15;99.50;155576.78;5023476;28;20119;-78
2022/05/28 10:04:45;;;;;;;23.42;3.55;;;;;;;12.18;100.00;155583.19;5012986;28;20090;-76
2022/05/28 10:07:11;;;;;;;17.10;2.30;;;;;;;12.28;100.00;155608.84;5042853;28;20040;-79
2022/05/28 10:09:49;;;;;;;11.25;2.40;;;;;;;12.80;97.83;155738.63;5008050;28;20076;-76
2022/05/28 10:12:20;;;;;;;13.70;2.63;;;;;;;13.28;100.00;155858.09;5013325;28;20083;-76
2022/05/28 10:14:58;;;;;;;19.90;2.92;;;;;;;13.55;82.74;155927.56;5022461;28;20033;-78
2022/05/28 10:17:25;;;;;;;15.57;2.42;;;;;;;13.25;90.69;155852.97;5023533;28;20033;-78
2022/05/28 10:19:54;;;;;;;17.00;2.60;;;;;;;12.97;96.58;155782.28;5012090;28;20041;-80
2022/05/28 10:22:21;;;;;;;14.80;1.98;;;;;;;12.64;95.26;155698.81;5005423;28;20060;-78
2022/05/28 10:24:50;;;;;;;16.63;2.83;;;;;;;12.50;98.13;155662.81;5016756;28;20755;-78
2022/05/28 10:27:28;;;;;;;10.23;1.98;;;;;;;12.44;86.28;155649.97;5039017;28;20426;-78
2022/05/28 10:29:57;;;;;;;16.80;2.92;;;;;;;12.02;94.43;155543.41;5045526;28;20086;-77
2022/05/28 10:32:46;;;;;;;21.60;2.47;;;;;;;11.73;100.00;155471.41;5047237;28;20098;-77
2022/05/28 10:35:19;;;;;;;27.33;3.28;;;;;;;11.82;100.00;155494.53;5021633;28;20033;-78
2022/05/28 10:37:44;;;;;;;22.02;2.83;;;;;;;12.45;100.00;155652.56;5035900;28;20032;-77
2022/05/28 10:40:17;;;;;;;19.77;2.80;;;;;;;13.40;91.62;155889.00;5028025;28;20040;-79
2022/05/28 10:42:43;;;;;;;16.70;2.47;;;;;;;13.19;89.26;155836.28;5004153;28;20083;-77
2022/05/28 10:45:10;;;;;;;12.73;2.10;;;;;;;12.94;99.09;155773.28;5013208;28;20882;-77
2022/05/28 10:47:50;;;;;;;11.00;2.38;;;;;;;12.41;98.56;155642.28;5022029;28;20041;-77
2022/05/28 10:50:25;;;;;;;17.55;2.92;;;;;;;12.07;98.90;155557.53;5025240;28;20033;-79
2022/05/28 10:53:09;;;;;;;17.50;2.25;;;;;;;11.93;100.00;155520.28;5028141;28;20021;-79
2022/05/28 10:55:57;;;;;;;12.50;2.42;;;;;;;11.98;94.51;155533.09;5058501;28;20033;-77
2022/05/28 10:58:35;;;;;;;16.92;2.60;;;;;;;12.39;93.51;155637.13;5059908;28;20044;-78
2022/05/28 11:01:37;;;;;;;8.15;2.20;;;;;;;12.97;90.71;155781.00;5043548;28;20044;-77
2022/05/28 11:04:36;;;;;;;14.85;2.85;;;;;;;13.82;91.34;155994.41;5042896;28;20045;-78
2022/05/28 11:07:13;;;;;;;16.98;1.95;;;;;;;14.32;83.76;156120.41;5036677;28;20067;-78
2022/05/28 11:09:53;;;;;;;16.70;2.50;;;;;;;14.79;88.71;156237.50;5058501;28;20101;-76
2022/05/28 11:12:49;;;;;;;14.05;2.45;;;;;;;14.54;81.29;156174.41;5034690;28;20033;-78
2022/05/28 11:15:33;;;;;;;16.42;2.42;;;;;;;13.77;84.70;155982.84;5046362;28;20040;-77
2022/05/28 11:18:20;;;;;;;18.17;2.10;;;;;;;13.30;84.02;155864.59;5030036;28;20029;-78
2022/05/28 11:21:12;;;;;;;17.80;2.40;;;;;;;13.17;90.35;155832.41;5025494;28;20408;-78
2022/05/28 11:24:03;;;;;;;12.02;2.13;;;;;;;12.93;90.63;155770.75;5030064;28;20575;-78
2022/05/28 11:26:47;;;;;;;13.30;1.98;;;;;;;12.97;95.08;155782.28;5027327;28;20025;-79
2022/05/28 11:29:41;;;;;;;14.80;2.28;;;;;;;13.19;85.76;155836.28;5012815;28;20344;-78
2022/05/28 11:32:22;;;;;;;9.95;1.95;;;;;;;13.40;84.82;155890.28;5030002;28;20078;-78
2022/05/28 11:34:58;;;;;;;12.48;2.05;;;;;;;13.42;85.25;155895.41;5029132;28;21659;-77
2022/05/28 11:37:54;;;;;;;11.05;1.95;;;;;;;13.37;90.74;155882.59;5025661;28;20738;-78